Latest Coastal Weather Observations for Arlington Reef

IDQ60701

Issued at 3:32 pm EST Thursday 1 September 2016 (issued every 10 minutes, with the page automatically refreshed every 10 minutes)

About coastal observations | Map of coastal stations | Coastal observations for QLD | Marine services | Other Formats
Station Details ID: 200879 Name: ARLINGTON REEF Lat: -16.72 Lon: 146.11 Height: 0.0 m
Data from the previous 72 hours. | See also: Recent months at Arlington Reef
Date/Time
EST
Temp
°C
Wind Pressure Rain since
9am
mm
Weather Cloud Vis
km
Sea
Height
m
Swell
Dir  Spd
kts
Gust
kts
hPa Trend Height
m
Period
s
Dir
01/03:30pm - SE 14 16 1013.0 - - - - - - - - -
01/03:00pm - ESE 15 17 1013.2 - - - - - - - - -
01/02:30pm - ESE 15 17 1013.6 - - - - - - - - -
01/02:00pm - ESE 16 18 1014.1 - - - - - - - - -
01/01:30pm - SE 14 19 1014.5 - - - - - - - - -
01/01:00pm - SE 10 12 1015.1 - - - - - - - - -
01/12:30pm - SE 9 12 1015.7 - - - - - - - - -
01/12:16pm - ESE 10 15 1015.9 - - - - - - - - -
01/12:00pm - E 20 25 1016.2 - - - - - - - - -
01/11:54am - ESE 16 23 1016.2 - - - - - - - - -
01/11:30am - S 12 13 1016.7 - - - - - - - - -
01/11:00am - SSE 12 14 1017.1 - - - - - - - - -
01/10:30am - SSE 12 13 1017.6 - - - - - - - - -
01/10:00am - SSE 12 14 1017.7 - - - - - - - - -
01/09:30am - SSE 12 15 1017.6 - - - - - - - - -
01/09:00am - SSE 14 15 1017.3 - - - - - - - - -
01/08:30am - SSE 17 19 1017.0 - - - - - - - - -
01/08:00am - SE 19 21 1016.6 - - - - - - - - -
01/07:30am - ESE 20 24 1016.2 - - - - - - - - -
01/07:00am - SE 17 19 1016.1 - - - - - - - - -
01/06:30am - SE 21 24 1016.0 - - - - - - - - -
01/06:14am - ESE 20 24 1015.8 - - - - - - - - -
01/06:00am - SSE 16 20 1015.7 - - - - - - - - -
01/05:30am - S 15 18 1015.2 - - - - - - - - -
01/05:00am - SSE 16 19 1015.4 - - - - - - - - -
01/04:30am - SSE 17 20 1015.4 - - - - - - - - -
01/04:00am - SE 16 19 1015.5 - - - - - - - - -
01/03:30am - ESE 17 19 1015.5 - - - - - - - - -
01/03:00am - ESE 14 16 1015.7 - - - - - - - - -
01/02:30am - SE 15 19 1015.9 - - - - - - - - -
01/02:00am - SE 16 18 1016.2 - - - - - - - - -
01/01:30am - ESE 21 24 1016.3 - - - - - - - - -
01/01:00am - ESE 21 25 1016.6 - - - - - - - - -
01/12:30am - ESE 22 25 1016.9 - - - - - - - - -
01/12:00am - ESE 20 24 1017.1 - - - - - - - - -
 
Date/Time
EST
Temp
°C
Wind Pressure Rain since
9am
mm
Weather Cloud Vis
km
Sea
Height
m
Swell
Dir  Spd
kts
Gust
kts
hPa Trend Height
m
Period
s
Dir
31/11:30pm - ESE 17 22 1017.5 - - - - - - - - -
31/11:00pm - ESE 20 24 1017.6 - - - - - - - - -
31/10:30pm - SE 19 22 1017.7 - - - - - - - - -
31/10:00pm - SE 18 21 1017.6 - - - - - - - - -
31/09:30pm - SE 18 20 1017.7 - - - - - - - - -
31/09:00pm - SE 17 20 1017.5 - - - - - - - - -
31/08:30pm - SE 18 21 1017.3 - - - - - - - - -
31/08:00pm - SE 17 21 1017.1 - - - - - - - - -
31/07:30pm - SE 19 22 1016.9 - - - - - - - - -
31/07:00pm - SE 19 22 1016.6 - - - - - - - - -
31/06:30pm - SE 18 21 1016.4 - - - - - - - - -
31/06:00pm - SE 17 22 1016.1 - - - - - - - - -
31/05:30pm - SE 17 20 1016.1 - - - - - - - - -
31/05:00pm - SE 17 20 1016.0 - - - - - - - - -
31/04:30pm - S 12 13 1016.2 - - - - - - - - -
31/04:00pm - S 12 13 1016.1 - - - - - - - - -
31/03:30pm - S 14 16 1016.2 - - - - - - - - -
31/03:00pm - SSE 15 18 1016.3 - - - - - - - - -
31/02:30pm - SE 17 19 1016.7 - - - - - - - - -
31/02:00pm - SE 17 20 1017.0 - - - - - - - - -
31/01:30pm - SE 16 19 1017.4 - - - - - - - - -
31/01:00pm - SE 13 17 1018.0 - - - - - - - - -
31/12:30pm - SE 13 17 1018.5 - - - - - - - - -
31/12:00pm - SE 14 16 1019.0 - - - - - - - - -
31/11:30am - SE 12 16 1019.6 - - - - - - - - -
31/11:00am - SE 13 15 1020.1 - - - - - - - - -
31/10:30am - SE 11 13 1020.3 - - - - - - - - -
31/10:00am - SE 15 16 1020.4 - - - - - - - - -
31/09:30am - ESE 16 19 1020.3 - - - - - - - - -
31/09:00am - ESE 14 17 1020.2 - - - - - - - - -
31/08:30am - SE 15 21 1019.9 - - - - - - - - -
31/08:00am - SE 23 28 1019.8 - - - - - - - - -
31/07:30am - ESE 21 25 1019.5 - - - - - - - - -
31/07:24am - SE 15 25 1019.4 - - - - - - - - -
31/07:00am - SE 12 14 1019.4 - - - - - - - - -
31/06:30am - SE 14 16 1019.1 - - - - - - - - -
31/06:00am - SE 14 17 1018.7 - - - - - - - - -
31/05:30am - SE 17 21 1018.5 - - - - - - - - -
31/05:00am - ESE 14 17 1018.6 - - - - - - - - -
31/04:30am - SE 13 16 1018.7 - - - - - - - - -
31/04:00am - SE 15 19 1018.6 - - - - - - - - -
31/03:30am - ESE 18 21 1018.6 - - - - - - - - -
31/03:00am - ESE 19 26 1018.7 - - - - - - - - -
31/02:30am - ESE 17 21 1019.0 - - - - - - - - -
31/02:00am - ESE 19 23 1019.2 - - - - - - - - -
31/01:30am - ESE 19 22 1019.3 - - - - - - - - -
31/01:00am - ESE 19 22 1019.6 - - - - - - - - -
31/12:30am - ESE 22 25 1019.8 - - - - - - - - -
31/12:09am - ESE 15 21 1020.3 - - - - - - - - -
31/12:00am - ESE 12 17 1020.5 - - - - - - - - -
 
Date/Time
EST
Temp
°C
Wind Pressure Rain since
9am
mm
Weather Cloud Vis
km
Sea
Height
m
Swell
Dir  Spd
kts
Gust
kts
hPa Trend Height
m
Period
s
Dir
30/11:30pm - ESE 20 23 1020.2 - - - - - - - - -
30/11:00pm - SE 19 23 1020.2 - - - - - - - - -
30/10:30pm - ESE 19 23 1020.2 - - - - - - - - -
30/10:00pm - ESE 21 25 1020.1 - - - - - - - - -
30/09:55pm - ESE 20 25 1020.2 - - - - - - - - -
30/09:30pm - SSE 15 18 1020.6 - - - - - - - - -
30/09:00pm - ESE 11 19 1020.9 - - - - - - - - -
30/08:30pm - SE 16 20 1020.8 - - - - - - - - -
30/08:00pm - SE 16 19 1020.1 - - - - - - - - -
30/07:30pm - SE 9 10 1019.9 - - - - - - - - -
30/07:00pm - ESE 15 21 1019.9 - - - - - - - - -
30/06:30pm - SE 19 22 1019.4 - - - - - - - - -
30/06:00pm - ESE 21 25 1019.1 - - - - - - - - -
30/05:30pm - SE 18 23 1018.9 - - - - - - - - -
30/05:00pm - SE 19 21 1018.8 - - - - - - - - -
30/04:30pm - SE 18 21 1018.5 - - - - - - - - -
30/04:00pm - SE 16 19 1018.4 - - - - - - - - -
30/03:30pm - SE 17 20 1018.3 - - - - - - - - -
30/03:00pm - SE 18 21 1018.4 - - - - - - - - -
30/02:30pm - SE 17 20 1018.6 - - - - - - - - -
30/02:00pm - SE 18 21 1019.0 - - - - - - - - -
30/01:30pm - SE 20 23 1019.3 - - - - - - - - -
30/01:00pm - SE 18 21 1019.7 - - - - - - - - -
30/12:30pm - SE 18 20 1019.9 - - - - - - - - -
30/12:00pm - ESE 18 21 1020.0 - - - - - - - - -
30/11:30am - ESE 18 20 1020.4 - - - - - - - - -
30/11:00am - ESE 18 22 1020.8 - - - - - - - - -
30/10:30am - ESE 17 19 1021.1 - - - - - - - - -
30/10:00am - ESE 17 22 1021.4 - - - - - - - - -
30/09:30am - SE 15 19 1021.3 - - - - - - - - -
30/09:00am - ESE 16 19 1020.9 - - - - - - - - -
30/08:30am - ESE 19 25 1020.8 - - - - - - - - -
30/08:00am - SE 17 21 1020.1 - - - - - - - - -
30/07:30am - SSE 14 17 1019.8 - - - - - - - - -
30/07:00am - SE 19 22 1019.5 - - - - - - - - -
30/06:30am - ESE 15 19 1019.1 - - - - - - - - -
30/06:00am - ESE 14 16 1018.7 - - - - - - - - -
30/05:30am - E 13 15 1018.4 - - - - - - - - -
30/05:00am - ESE 14 18 1018.3 - - - - - - - - -
30/04:30am - ESE 18 22 1018.1 - - - - - - - - -
30/04:00am - ESE 19 24 1017.9 - - - - - - - - -
30/03:30am - ESE 18 22 1017.9 - - - - - - - - -
30/03:00am - SE 15 18 1018.1 - - - - - - - - -
30/02:30am - SE 15 17 1018.0 - - - - - - - - -
30/02:00am - ESE 18 20 1018.2 - - - - - - - - -
30/01:30am - ESE 18 22 1018.4 - - - - - - - - -
30/01:00am - ESE 19 21 1018.6 - - - - - - - - -
30/12:30am - ESE 20 23 1018.6 - - - - - - - - -
30/12:00am - ESE 21 25 1018.7 - - - - - - - - -
 
Date/Time
EST
Temp
°C
Wind Pressure Rain since
9am
mm
Weather Cloud Vis
km
Sea
Height
m
Swell
Dir  Spd
kts
Gust
kts
hPa Trend Height
m
Period
s
Dir
29/11:30pm - ESE 21 26 1018.8 - - - - - - - - -
29/11:00pm - SE 20 23 1019.0 - - - - - - - - -
29/10:30pm - SE 18 23 1019.1 - - - - - - - - -
29/10:00pm - SE 19 23 1019.5 - - - - - - - - -
29/09:30pm - ESE 20 23 1019.6 - - - - - - - - -
29/09:00pm - ESE 20 25 1019.4 - - - - - - - - -
29/08:30pm - SE 21 25 1019.2 - - - - - - - - -
29/08:00pm - SE 20 25 1018.9 - - - - - - - - -
29/07:30pm - SE 20 24 1018.6 - - - - - - - - -
29/07:00pm - SE 18 22 1018.3 - - - - - - - - -
29/06:30pm - SE 20 23 1018.1 - - - - - - - - -
29/06:00pm - SE 18 22 1018.1 - - - - - - - - -
29/05:30pm - SE 19 21 1018.0 - - - - - - - - -
29/05:00pm - ESE 17 21 1017.9 - - - - - - - - -
29/04:30pm - SSE 18 21 1017.6 - - - - - - - - -
29/04:00pm - SE 15 20 1017.6 - - - - - - - - -

Other Formats:

Comma delimited format used in spreadsheet applications
http://www.bom.gov.au/fwo/IDQ60701/IDQ60701.94284.axf

JavaScript Object Notation format (JSON) in row-major order
http://www.bom.gov.au/fwo/IDQ60701/IDQ60701.94284.json